sensor_id;sensor_type;location;lat;lon;timestamp;P1;durP1;ratioP1;P2;durP2;ratioP2
9924;SDS011;5001;51.674;7.868;2024-03-02T00:00:20;19.27;;;17.87;;
9924;SDS011;5001;51.674;7.868;2024-03-02T00:02:49;20.13;;;18.43;;
9924;SDS011;5001;51.674;7.868;2024-03-02T00:05:17;19.93;;;18.43;;
9924;SDS011;5001;51.674;7.868;2024-03-02T00:07:55;20.50;;;18.60;;
9924;SDS011;5001;51.674;7.868;2024-03-02T00:10:35;19.63;;;18.23;;
9924;SDS011;5001;51.674;7.868;2024-03-02T00:13:06;19.60;;;18.20;;
9924;SDS011;5001;51.674;7.868;2024-03-02T00:15:41;19.23;;;17.87;;
9924;SDS011;5001;51.674;7.868;2024-03-02T00:18:13;18.97;;;17.67;;
9924;SDS011;5001;51.674;7.868;2024-03-02T00:20:42;19.23;;;17.93;;
9924;SDS011;5001;51.674;7.868;2024-03-02T00:23:10;20.07;;;18.47;;
9924;SDS011;5001;51.674;7.868;2024-03-02T00:25:44;20.03;;;18.43;;
9924;SDS011;5001;51.674;7.868;2024-03-02T00:28:21;19.60;;;18.27;;
9924;SDS011;5001;51.674;7.868;2024-03-02T00:31:09;19.50;;;18.10;;
9924;SDS011;5001;51.674;7.868;2024-03-02T00:33:41;19.47;;;18.00;;
9924;SDS011;5001;51.674;7.868;2024-03-02T00:36:11;19.90;;;18.30;;
9924;SDS011;5001;51.674;7.868;2024-03-02T00:38:46;19.30;;;18.00;;
9924;SDS011;5001;51.674;7.868;2024-03-02T00:41:24;19.20;;;17.80;;
9924;SDS011;5001;51.674;7.868;2024-03-02T00:43:59;20.33;;;18.63;;
9924;SDS011;5001;51.674;7.868;2024-03-02T00:46:33;20.07;;;18.67;;
9924;SDS011;5001;51.674;7.868;2024-03-02T00:49:04;20.67;;;19.07;;
9924;SDS011;5001;51.674;7.868;2024-03-02T00:51:37;20.40;;;18.80;;
9924;SDS011;5001;51.674;7.868;2024-03-02T00:54:07;20.20;;;18.80;;
9924;SDS011;5001;51.674;7.868;2024-03-02T00:56:35;20.37;;;18.83;;
9924;SDS011;5001;51.674;7.868;2024-03-02T00:59:02;19.70;;;18.30;;
9924;SDS011;5001;51.674;7.868;2024-03-02T01:01:29;20.30;;;18.80;;
9924;SDS011;5001;51.674;7.868;2024-03-02T01:03:56;20.60;;;19.00;;
9924;SDS011;5001;51.674;7.868;2024-03-02T01:06:26;20.07;;;18.57;;
9924;SDS011;5001;51.674;7.868;2024-03-02T01:08:53;19.53;;;18.13;;
9924;SDS011;5001;51.674;7.868;2024-03-02T01:11:20;20.07;;;18.47;;
9924;SDS011;5001;51.674;7.868;2024-03-02T01:13:50;20.23;;;18.70;;
9924;SDS011;5001;51.674;7.868;2024-03-02T01:16:19;19.67;;;18.27;;
9924;SDS011;5001;51.674;7.868;2024-03-02T01:18:46;20.50;;;18.80;;
9924;SDS011;5001;51.674;7.868;2024-03-02T01:21:14;20.13;;;18.63;;
9924;SDS011;5001;51.674;7.868;2024-03-02T01:23:41;20.63;;;19.00;;
9924;SDS011;5001;51.674;7.868;2024-03-02T01:26:08;20.47;;;18.93;;
9924;SDS011;5001;51.674;7.868;2024-03-02T01:28:35;20.03;;;18.50;;
9924;SDS011;5001;51.674;7.868;2024-03-02T01:31:02;21.17;;;18.93;;
9924;SDS011;5001;51.674;7.868;2024-03-02T01:33:30;20.40;;;18.80;;
9924;SDS011;5001;51.674;7.868;2024-03-02T01:35:57;19.53;;;18.13;;
9924;SDS011;5001;51.674;7.868;2024-03-02T01:38:24;19.57;;;18.20;;
9924;SDS011;5001;51.674;7.868;2024-03-02T01:40:51;20.20;;;18.60;;
9924;SDS011;5001;51.674;7.868;2024-03-02T01:43:18;20.20;;;18.60;;
9924;SDS011;5001;51.674;7.868;2024-03-02T01:45:46;20.00;;;18.60;;
9924;SDS011;5001;51.674;7.868;2024-03-02T01:48:13;19.93;;;18.43;;
9924;SDS011;5001;51.674;7.868;2024-03-02T01:50:40;19.87;;;18.37;;
9924;SDS011;5001;51.674;7.868;2024-03-02T01:53:07;19.63;;;18.20;;
9924;SDS011;5001;51.674;7.868;2024-03-02T01:55:36;20.00;;;18.50;;
9924;SDS011;5001;51.674;7.868;2024-03-02T01:58:03;20.23;;;18.70;;
9924;SDS011;5001;51.674;7.868;2024-03-02T02:00:30;20.10;;;18.60;;
9924;SDS011;5001;51.674;7.868;2024-03-02T02:02:58;19.50;;;18.10;;
9924;SDS011;5001;51.674;7.868;2024-03-02T02:05:25;19.47;;;18.07;;
9924;SDS011;5001;51.674;7.868;2024-03-02T02:07:52;20.30;;;18.60;;
9924;SDS011;5001;51.674;7.868;2024-03-02T02:10:19;20.00;;;18.20;;
9924;SDS011;5001;51.674;7.868;2024-03-02T02:12:47;19.70;;;18.30;;
9924;SDS011;5001;51.674;7.868;2024-03-02T02:15:29;19.47;;;18.00;;
9924;SDS011;5001;51.674;7.868;2024-03-02T02:17:57;19.43;;;18.13;;
9924;SDS011;5001;51.674;7.868;2024-03-02T02:20:25;20.03;;;18.63;;
9924;SDS011;5001;51.674;7.868;2024-03-02T02:22:59;19.83;;;18.43;;
9924;SDS011;5001;51.674;7.868;2024-03-02T02:25:31;19.40;;;18.00;;
9924;SDS011;5001;51.674;7.868;2024-03-02T02:27:58;20.00;;;18.40;;
9924;SDS011;5001;51.674;7.868;2024-03-02T02:30:26;19.30;;;17.90;;
9924;SDS011;5001;51.674;7.868;2024-03-02T02:32:57;19.50;;;18.00;;
9924;SDS011;5001;51.674;7.868;2024-03-02T02:35:24;19.97;;;18.37;;
9924;SDS011;5001;51.674;7.868;2024-03-02T02:37:52;19.77;;;18.27;;
9924;SDS011;5001;51.674;7.868;2024-03-02T02:40:21;19.30;;;18.00;;
9924;SDS011;5001;51.674;7.868;2024-03-02T02:42:48;19.67;;;18.27;;
9924;SDS011;5001;51.674;7.868;2024-03-02T02:45:15;19.43;;;18.13;;
9924;SDS011;5001;51.674;7.868;2024-03-02T02:47:42;19.03;;;17.67;;
9924;SDS011;5001;51.674;7.868;2024-03-02T02:50:11;19.20;;;17.80;;
9924;SDS011;5001;51.674;7.868;2024-03-02T02:52:39;19.33;;;18.03;;
9924;SDS011;5001;51.674;7.868;2024-03-02T02:55:08;19.13;;;17.80;;
9924;SDS011;5001;51.674;7.868;2024-03-02T02:57:39;19.00;;;17.60;;
9924;SDS011;5001;51.674;7.868;2024-03-02T03:00:10;18.67;;;17.37;;
9924;SDS011;5001;51.674;7.868;2024-03-02T03:03:32;18.53;;;17.33;;
9924;SDS011;5001;51.674;7.868;2024-03-02T03:05:59;20.80;;;19.13;;
9924;SDS011;5001;51.674;7.868;2024-03-02T03:08:26;19.43;;;18.00;;
9924;SDS011;5001;51.674;7.868;2024-03-02T03:10:53;19.30;;;17.90;;
9924;SDS011;5001;51.674;7.868;2024-03-02T03:13:20;19.23;;;17.93;;
9924;SDS011;5001;51.674;7.868;2024-03-02T03:15:47;19.57;;;17.97;;
9924;SDS011;5001;51.674;7.868;2024-03-02T03:18:14;19.63;;;18.03;;
9924;SDS011;5001;51.674;7.868;2024-03-02T03:20:41;19.50;;;18.13;;
9924;SDS011;5001;51.674;7.868;2024-03-02T03:23:08;19.27;;;17.97;;
9924;SDS011;5001;51.674;7.868;2024-03-02T03:25:35;19.03;;;17.73;;
9924;SDS011;5001;51.674;7.868;2024-03-02T03:28:02;19.70;;;18.40;;
9924;SDS011;5001;51.674;7.868;2024-03-02T03:30:30;19.43;;;18.03;;
9924;SDS011;5001;51.674;7.868;2024-03-02T03:32:57;19.77;;;18.20;;
9924;SDS011;5001;51.674;7.868;2024-03-02T03:35:24;19.23;;;17.87;;
9924;SDS011;5001;51.674;7.868;2024-03-02T03:37:51;19.60;;;18.30;;
9924;SDS011;5001;51.674;7.868;2024-03-02T03:40:18;19.63;;;18.33;;
9924;SDS011;5001;51.674;7.868;2024-03-02T03:42:45;19.53;;;18.03;;
9924;SDS011;5001;51.674;7.868;2024-03-02T03:45:12;19.30;;;18.00;;
9924;SDS011;5001;51.674;7.868;2024-03-02T03:47:39;19.53;;;18.00;;
9924;SDS011;5001;51.674;7.868;2024-03-02T03:50:06;19.13;;;17.80;;
9924;SDS011;5001;51.674;7.868;2024-03-02T03:52:34;19.57;;;17.97;;
9924;SDS011;5001;51.674;7.868;2024-03-02T03:55:01;20.10;;;18.43;;
9924;SDS011;5001;51.674;7.868;2024-03-02T03:57:28;18.83;;;17.53;;
9924;SDS011;5001;51.674;7.868;2024-03-02T03:59:55;19.27;;;17.90;;
9924;SDS011;5001;51.674;7.868;2024-03-02T04:02:22;20.27;;;18.57;;
9924;SDS011;5001;51.674;7.868;2024-03-02T04:04:50;19.73;;;18.33;;
9924;SDS011;5001;51.674;7.868;2024-03-02T04:07:18;20.27;;;18.67;;
9924;SDS011;5001;51.674;7.868;2024-03-02T04:09:44;20.00;;;18.23;;
9924;SDS011;5001;51.674;7.868;2024-03-02T04:12:11;20.37;;;18.87;;
9924;SDS011;5001;51.674;7.868;2024-03-02T04:14:39;20.53;;;19.03;;
9924;SDS011;5001;51.674;7.868;2024-03-02T04:17:09;20.10;;;18.37;;
9924;SDS011;5001;51.674;7.868;2024-03-02T04:19:36;19.87;;;18.47;;
9924;SDS011;5001;51.674;7.868;2024-03-02T04:22:03;20.27;;;18.77;;
9924;SDS011;5001;51.674;7.868;2024-03-02T04:24:43;19.40;;;18.10;;
9924;SDS011;5001;51.674;7.868;2024-03-02T04:27:12;19.97;;;18.47;;
9924;SDS011;5001;51.674;7.868;2024-03-02T04:29:39;19.37;;;18.00;;
9924;SDS011;5001;51.674;7.868;2024-03-02T04:32:06;20.27;;;18.50;;
9924;SDS011;5001;51.674;7.868;2024-03-02T04:34:33;19.70;;;18.10;;
9924;SDS011;5001;51.674;7.868;2024-03-02T04:37:00;19.33;;;17.83;;
9924;SDS011;5001;51.674;7.868;2024-03-02T04:39:27;19.47;;;18.07;;
9924;SDS011;5001;51.674;7.868;2024-03-02T04:41:54;20.37;;;18.80;;
9924;SDS011;5001;51.674;7.868;2024-03-02T04:44:21;20.13;;;18.63;;
9924;SDS011;5001;51.674;7.868;2024-03-02T04:46:48;20.00;;;18.40;;
9924;SDS011;5001;51.674;7.868;2024-03-02T04:49:15;19.73;;;18.23;;
9924;SDS011;5001;51.674;7.868;2024-03-02T04:51:42;19.57;;;18.17;;
9924;SDS011;5001;51.674;7.868;2024-03-02T04:54:09;18.97;;;17.57;;
9924;SDS011;5001;51.674;7.868;2024-03-02T04:56:36;20.27;;;18.60;;
9924;SDS011;5001;51.674;7.868;2024-03-02T04:59:11;19.47;;;18.07;;
9924;SDS011;5001;51.674;7.868;2024-03-02T05:01:38;19.23;;;17.83;;
9924;SDS011;5001;51.674;7.868;2024-03-02T05:04:05;19.17;;;17.77;;
9924;SDS011;5001;51.674;7.868;2024-03-02T05:06:32;20.30;;;18.70;;
9924;SDS011;5001;51.674;7.868;2024-03-02T05:08:59;19.53;;;18.03;;
9924;SDS011;5001;51.674;7.868;2024-03-02T05:11:26;20.30;;;18.60;;
9924;SDS011;5001;51.674;7.868;2024-03-02T05:14:05;20.87;;;18.97;;
9924;SDS011;5001;51.674;7.868;2024-03-02T05:16:33;20.87;;;19.07;;
9924;SDS011;5001;51.674;7.868;2024-03-02T05:19:05;20.37;;;18.80;;
9924;SDS011;5001;51.674;7.868;2024-03-02T05:21:34;19.97;;;18.47;;
9924;SDS011;5001;51.674;7.868;2024-03-02T05:24:01;20.63;;;18.70;;
9924;SDS011;5001;51.674;7.868;2024-03-02T05:26:28;20.30;;;18.80;;
9924;SDS011;5001;51.674;7.868;2024-03-02T05:28:55;20.00;;;18.10;;
9924;SDS011;5001;51.674;7.868;2024-03-02T05:31:22;20.00;;;18.40;;
9924;SDS011;5001;51.674;7.868;2024-03-02T05:33:49;19.23;;;17.80;;
9924;SDS011;5001;51.674;7.868;2024-03-02T05:36:22;19.70;;;18.10;;
9924;SDS011;5001;51.674;7.868;2024-03-02T05:38:49;19.90;;;18.33;;
9924;SDS011;5001;51.674;7.868;2024-03-02T05:41:16;19.27;;;17.87;;
9924;SDS011;5001;51.674;7.868;2024-03-02T05:43:43;19.50;;;18.03;;
9924;SDS011;5001;51.674;7.868;2024-03-02T05:46:10;19.70;;;18.20;;
9924;SDS011;5001;51.674;7.868;2024-03-02T05:48:38;19.63;;;18.13;;
9924;SDS011;5001;51.674;7.868;2024-03-02T05:51:05;19.33;;;17.77;;
9924;SDS011;5001;51.674;7.868;2024-03-02T05:53:32;19.37;;;17.93;;
9924;SDS011;5001;51.674;7.868;2024-03-02T05:56:00;19.93;;;18.23;;
9924;SDS011;5001;51.674;7.868;2024-03-02T05:58:30;18.67;;;17.30;;
9924;SDS011;5001;51.674;7.868;2024-03-02T06:01:16;19.07;;;17.67;;
9924;SDS011;5001;51.674;7.868;2024-03-02T06:03:44;19.30;;;17.60;;
9924;SDS011;5001;51.674;7.868;2024-03-02T06:06:11;19.33;;;17.90;;
9924;SDS011;5001;51.674;7.868;2024-03-02T06:08:38;19.03;;;17.73;;
9924;SDS011;5001;51.674;7.868;2024-03-02T06:11:05;19.40;;;17.93;;
9924;SDS011;5001;51.674;7.868;2024-03-02T06:13:32;18.87;;;17.57;;
9924;SDS011;5001;51.674;7.868;2024-03-02T06:15:59;19.53;;;18.03;;
9924;SDS011;5001;51.674;7.868;2024-03-02T06:18:26;20.13;;;18.30;;
9924;SDS011;5001;51.674;7.868;2024-03-02T06:20:54;19.00;;;17.60;;
9924;SDS011;5001;51.674;7.868;2024-03-02T06:23:21;19.63;;;18.17;;
9924;SDS011;5001;51.674;7.868;2024-03-02T06:25:48;19.63;;;18.03;;
9924;SDS011;5001;51.674;7.868;2024-03-02T06:28:15;18.90;;;17.60;;
9924;SDS011;5001;51.674;7.868;2024-03-02T06:30:45;19.80;;;18.30;;
9924;SDS011;5001;51.674;7.868;2024-03-02T06:33:12;19.70;;;18.07;;
9924;SDS011;5001;51.674;7.868;2024-03-02T06:35:39;19.90;;;18.33;;
9924;SDS011;5001;51.674;7.868;2024-03-02T06:38:09;19.47;;;18.03;;
9924;SDS011;5001;51.674;7.868;2024-03-02T06:40:36;18.67;;;17.37;;
9924;SDS011;5001;51.674;7.868;2024-03-02T06:43:11;19.40;;;18.00;;
9924;SDS011;5001;51.674;7.868;2024-03-02T06:45:38;19.33;;;17.80;;
9924;SDS011;5001;51.674;7.868;2024-03-02T06:48:05;20.80;;;19.00;;
9924;SDS011;5001;51.674;7.868;2024-03-02T06:50:32;19.40;;;17.80;;
9924;SDS011;5001;51.674;7.868;2024-03-02T06:52:59;19.17;;;17.70;;
9924;SDS011;5001;51.674;7.868;2024-03-02T06:55:26;19.53;;;18.13;;
9924;SDS011;5001;51.674;7.868;2024-03-02T06:57:53;18.93;;;17.43;;
9924;SDS011;5001;51.674;7.868;2024-03-02T07:00:20;18.50;;;17.30;;
9924;SDS011;5001;51.674;7.868;2024-03-02T07:02:47;18.93;;;17.60;;
9924;SDS011;5001;51.674;7.868;2024-03-02T07:05:14;19.43;;;18.00;;
9924;SDS011;5001;51.674;7.868;2024-03-02T07:07:41;18.80;;;17.30;;
9924;SDS011;5001;51.674;7.868;2024-03-02T07:10:08;18.33;;;16.93;;
9924;SDS011;5001;51.674;7.868;2024-03-02T07:12:35;18.33;;;17.10;;
9924;SDS011;5001;51.674;7.868;2024-03-02T07:15:05;19.17;;;17.50;;
9924;SDS011;5001;51.674;7.868;2024-03-02T07:17:32;19.30;;;17.70;;
9924;SDS011;5001;51.674;7.868;2024-03-02T07:20:00;19.17;;;17.60;;
9924;SDS011;5001;51.674;7.868;2024-03-02T07:22:26;19.07;;;17.60;;
9924;SDS011;5001;51.674;7.868;2024-03-02T07:24:53;19.27;;;17.77;;
9924;SDS011;5001;51.674;7.868;2024-03-02T07:27:20;19.37;;;17.87;;
9924;SDS011;5001;51.674;7.868;2024-03-02T07:29:47;20.17;;;18.63;;
9924;SDS011;5001;51.674;7.868;2024-03-02T07:32:14;19.93;;;18.43;;
9924;SDS011;5001;51.674;7.868;2024-03-02T07:34:41;19.87;;;18.07;;
9924;SDS011;5001;51.674;7.868;2024-03-02T07:37:08;19.80;;;18.13;;
9924;SDS011;5001;51.674;7.868;2024-03-02T07:39:36;19.70;;;18.10;;
9924;SDS011;5001;51.674;7.868;2024-03-02T07:42:03;19.70;;;18.07;;
9924;SDS011;5001;51.674;7.868;2024-03-02T07:44:31;19.07;;;17.67;;
9924;SDS011;5001;51.674;7.868;2024-03-02T07:46:58;18.30;;;16.87;;
9924;SDS011;5001;51.674;7.868;2024-03-02T07:49:24;19.10;;;17.63;;
9924;SDS011;5001;51.674;7.868;2024-03-02T07:51:51;19.80;;;18.13;;
9924;SDS011;5001;51.674;7.868;2024-03-02T07:54:19;19.03;;;17.57;;
9924;SDS011;5001;51.674;7.868;2024-03-02T07:56:47;19.03;;;17.53;;
9924;SDS011;5001;51.674;7.868;2024-03-02T07:59:15;18.87;;;17.47;;
9924;SDS011;5001;51.674;7.868;2024-03-02T08:01:42;18.90;;;17.50;;
9924;SDS011;5001;51.674;7.868;2024-03-02T08:04:09;18.83;;;17.43;;
9924;SDS011;5001;51.674;7.868;2024-03-02T08:06:36;19.07;;;17.50;;
9924;SDS011;5001;51.674;7.868;2024-03-02T08:09:03;18.63;;;17.23;;
9924;SDS011;5001;51.674;7.868;2024-03-02T08:11:35;19.27;;;17.73;;
9924;SDS011;5001;51.674;7.868;2024-03-02T08:14:03;18.93;;;17.53;;
9924;SDS011;5001;51.674;7.868;2024-03-02T08:16:30;19.13;;;17.67;;
9924;SDS011;5001;51.674;7.868;2024-03-02T08:18:58;19.70;;;18.10;;
9924;SDS011;5001;51.674;7.868;2024-03-02T08:21:25;19.97;;;18.03;;
9924;SDS011;5001;51.674;7.868;2024-03-02T08:23:52;20.27;;;18.77;;
9924;SDS011;5001;51.674;7.868;2024-03-02T08:26:19;20.37;;;18.77;;
9924;SDS011;5001;51.674;7.868;2024-03-02T08:28:46;19.20;;;17.90;;
9924;SDS011;5001;51.674;7.868;2024-03-02T08:31:13;19.97;;;18.17;;
9924;SDS011;5001;51.674;7.868;2024-03-02T08:33:40;19.30;;;18.00;;
9924;SDS011;5001;51.674;7.868;2024-03-02T08:36:07;19.30;;;17.80;;
9924;SDS011;5001;51.674;7.868;2024-03-02T08:38:36;19.60;;;17.90;;
9924;SDS011;5001;51.674;7.868;2024-03-02T08:41:03;18.90;;;17.40;;
9924;SDS011;5001;51.674;7.868;2024-03-02T08:43:30;17.70;;;16.50;;
9924;SDS011;5001;51.674;7.868;2024-03-02T08:45:57;18.77;;;17.30;;
9924;SDS011;5001;51.674;7.868;2024-03-02T08:48:24;18.60;;;17.10;;
9924;SDS011;5001;51.674;7.868;2024-03-02T08:50:51;18.40;;;16.90;;
9924;SDS011;5001;51.674;7.868;2024-03-02T08:53:18;18.27;;;17.03;;
9924;SDS011;5001;51.674;7.868;2024-03-02T08:55:45;19.17;;;17.60;;
9924;SDS011;5001;51.674;7.868;2024-03-02T08:58:13;18.37;;;16.97;;
9924;SDS011;5001;51.674;7.868;2024-03-02T09:00:40;19.17;;;17.63;;
9924;SDS011;5001;51.674;7.868;2024-03-02T09:03:08;19.30;;;17.83;;
9924;SDS011;5001;51.674;7.868;2024-03-02T09:05:35;19.53;;;18.10;;
9924;SDS011;5001;51.674;7.868;2024-03-02T09:08:02;19.53;;;17.87;;
9924;SDS011;5001;51.674;7.868;2024-03-02T09:10:29;19.70;;;18.17;;
9924;SDS011;5001;51.674;7.868;2024-03-02T09:12:57;18.90;;;17.55;;
9924;SDS011;5001;51.674;7.868;2024-03-02T09:15:25;20.90;;;18.90;;
9924;SDS011;5001;51.674;7.868;2024-03-02T09:17:52;20.35;;;18.75;;
9924;SDS011;5001;51.674;7.868;2024-03-02T09:20:19;20.38;;;18.75;;
9924;SDS011;5001;51.674;7.868;2024-03-02T09:22:46;21.27;;;19.48;;
9924;SDS011;5001;51.674;7.868;2024-03-02T09:25:15;21.08;;;19.38;;
9924;SDS011;5001;51.674;7.868;2024-03-02T09:27:42;21.77;;;20.08;;
9924;SDS011;5001;51.674;7.868;2024-03-02T09:30:09;23.92;;;21.80;;
9924;SDS011;5001;51.674;7.868;2024-03-02T09:32:37;23.27;;;21.30;;
9924;SDS011;5001;51.674;7.868;2024-03-02T09:35:04;23.27;;;21.27;;
9924;SDS011;5001;51.674;7.868;2024-03-02T09:37:31;22.77;;;20.90;;
9924;SDS011;5001;51.674;7.868;2024-03-02T09:39:59;22.35;;;20.45;;
9924;SDS011;5001;51.674;7.868;2024-03-02T09:42:26;21.90;;;20.10;;
9924;SDS011;5001;51.674;7.868;2024-03-02T09:44:53;23.27;;;21.17;;
9924;SDS011;5001;51.674;7.868;2024-03-02T09:47:20;21.98;;;20.17;;
9924;SDS011;5001;51.674;7.868;2024-03-02T09:49:47;22.73;;;20.80;;
9924;SDS011;5001;51.674;7.868;2024-03-02T09:52:15;22.77;;;20.88;;
9924;SDS011;5001;51.674;7.868;2024-03-02T09:54:42;22.65;;;20.65;;
9924;SDS011;5001;51.674;7.868;2024-03-02T09:57:10;22.52;;;20.52;;
9924;SDS011;5001;51.674;7.868;2024-03-02T09:59:37;22.17;;;20.17;;
9924;SDS011;5001;51.674;7.868;2024-03-02T10:02:04;23.15;;;21.17;;
9924;SDS011;5001;51.674;7.868;2024-03-02T10:04:34;22.00;;;20.25;;
9924;SDS011;5001;51.674;7.868;2024-03-02T10:09:41;22.52;;;20.73;;
9924;SDS011;5001;51.674;7.868;2024-03-02T10:12:11;22.23;;;20.42;;
9924;SDS011;5001;51.674;7.868;2024-03-02T10:14:40;22.45;;;20.55;;
9924;SDS011;5001;51.674;7.868;2024-03-02T10:17:08;21.98;;;20.27;;
9924;SDS011;5001;51.674;7.868;2024-03-02T10:19:36;23.17;;;21.38;;
9924;SDS011;5001;51.674;7.868;2024-03-02T10:22:06;22.52;;;20.73;;
9924;SDS011;5001;51.674;7.868;2024-03-02T10:24:35;22.38;;;20.58;;
9924;SDS011;5001;51.674;7.868;2024-03-02T10:27:18;23.20;;;21.20;;
9924;SDS011;5001;51.674;7.868;2024-03-02T10:29:53;22.30;;;20.50;;
9924;SDS011;5001;51.674;7.868;2024-03-02T10:32:22;21.98;;;20.17;;
9924;SDS011;5001;51.674;7.868;2024-03-02T10:34:49;22.02;;;20.23;;
9924;SDS011;5001;51.674;7.868;2024-03-02T10:37:16;21.83;;;20.00;;
9924;SDS011;5001;51.674;7.868;2024-03-02T10:39:45;22.10;;;20.38;;
9924;SDS011;5001;51.674;7.868;2024-03-02T10:42:14;22.63;;;20.73;;
9924;SDS011;5001;51.674;7.868;2024-03-02T10:44:41;21.63;;;19.92;;
9924;SDS011;5001;51.674;7.868;2024-03-02T10:47:09;22.08;;;20.27;;
9924;SDS011;5001;51.674;7.868;2024-03-02T10:49:40;21.33;;;19.63;;
9924;SDS011;5001;51.674;7.868;2024-03-02T10:52:09;22.08;;;20.30;;
9924;SDS011;5001;51.674;7.868;2024-03-02T10:54:36;21.77;;;20.08;;
9924;SDS011;5001;51.674;7.868;2024-03-02T10:57:07;21.80;;;20.00;;
9924;SDS011;5001;51.674;7.868;2024-03-02T10:59:36;21.60;;;19.90;;
9924;SDS011;5001;51.674;7.868;2024-03-02T11:02:09;21.52;;;19.90;;
9924;SDS011;5001;51.674;7.868;2024-03-02T11:04:38;21.63;;;20.00;;
9924;SDS011;5001;51.674;7.868;2024-03-02T11:07:07;21.48;;;19.80;;
9924;SDS011;5001;51.674;7.868;2024-03-02T11:09:42;21.52;;;19.92;;
9924;SDS011;5001;51.674;7.868;2024-03-02T11:12:19;21.85;;;20.25;;
9924;SDS011;5001;51.674;7.868;2024-03-02T11:14:49;22.27;;;20.58;;
9924;SDS011;5001;51.674;7.868;2024-03-02T11:17:20;21.65;;;20.05;;
9924;SDS011;5001;51.674;7.868;2024-03-02T11:19:48;21.80;;;20.20;;
9924;SDS011;5001;51.674;7.868;2024-03-02T11:22:16;20.80;;;19.10;;
9924;SDS011;5001;51.674;7.868;2024-03-02T11:24:50;20.77;;;19.17;;
9924;SDS011;5001;51.674;7.868;2024-03-02T11:32:58;21.38;;;19.67;;
9924;SDS011;5001;51.674;7.868;2024-03-02T11:35:38;20.65;;;19.15;;
9924;SDS011;5001;51.674;7.868;2024-03-02T11:38:15;20.75;;;19.23;;
9924;SDS011;5001;51.674;7.868;2024-03-02T11:40:44;21.00;;;19.50;;
9924;SDS011;5001;51.674;7.868;2024-03-02T11:43:11;21.05;;;19.45;;
9924;SDS011;5001;51.674;7.868;2024-03-02T11:45:38;20.85;;;19.30;;
9924;SDS011;5001;51.674;7.868;2024-03-02T11:48:14;21.23;;;19.63;;
9924;SDS011;5001;51.674;7.868;2024-03-02T11:50:46;20.80;;;19.20;;
9924;SDS011;5001;51.674;7.868;2024-03-02T11:53:15;20.75;;;19.15;;
9924;SDS011;5001;51.674;7.868;2024-03-02T11:55:44;20.48;;;18.98;;
9924;SDS011;5001;51.674;7.868;2024-03-02T11:58:15;20.80;;;19.17;;
9924;SDS011;5001;51.674;7.868;2024-03-02T12:00:53;20.73;;;19.23;;
9924;SDS011;5001;51.674;7.868;2024-03-02T12:03:23;20.73;;;19.23;;
9924;SDS011;5001;51.674;7.868;2024-03-02T12:05:52;21.05;;;19.45;;
9924;SDS011;5001;51.674;7.868;2024-03-02T12:08:20;21.00;;;19.40;;
9924;SDS011;5001;51.674;7.868;2024-03-02T12:11:00;20.90;;;19.40;;
9924;SDS011;5001;51.674;7.868;2024-03-02T12:13:30;21.63;;;20.02;;
9924;SDS011;5001;51.674;7.868;2024-03-02T12:15:57;20.63;;;19.13;;
9924;SDS011;5001;51.674;7.868;2024-03-02T12:18:25;21.10;;;19.40;;
9924;SDS011;5001;51.674;7.868;2024-03-02T12:20:53;21.35;;;19.75;;
9924;SDS011;5001;51.674;7.868;2024-03-02T12:23:24;21.10;;;19.50;;
9924;SDS011;5001;51.674;7.868;2024-03-02T12:25:51;20.58;;;19.08;;
9924;SDS011;5001;51.674;7.868;2024-03-02T12:28:19;20.70;;;19.20;;
9924;SDS011;5001;51.674;7.868;2024-03-02T12:30:46;20.90;;;19.38;;
9924;SDS011;5001;51.674;7.868;2024-03-02T12:33:14;21.65;;;19.90;;
9924;SDS011;5001;51.674;7.868;2024-03-02T12:35:41;21.00;;;19.50;;
9924;SDS011;5001;51.674;7.868;2024-03-02T12:38:09;21.02;;;19.52;;
9924;SDS011;5001;51.674;7.868;2024-03-02T12:40:37;20.77;;;19.27;;
9924;SDS011;5001;51.674;7.868;2024-03-02T12:43:05;20.88;;;19.38;;
9924;SDS011;5001;51.674;7.868;2024-03-02T12:45:33;20.67;;;19.17;;
9924;SDS011;5001;51.674;7.868;2024-03-02T12:48:01;20.80;;;19.20;;
9924;SDS011;5001;51.674;7.868;2024-03-02T12:50:30;20.98;;;19.38;;
9924;SDS011;5001;51.674;7.868;2024-03-02T12:52:57;21.10;;;19.42;;
9924;SDS011;5001;51.674;7.868;2024-03-02T12:55:24;21.15;;;19.63;;
9924;SDS011;5001;51.674;7.868;2024-03-02T12:57:51;21.45;;;19.85;;
9924;SDS011;5001;51.674;7.868;2024-03-02T13:00:20;21.48;;;19.88;;
9924;SDS011;5001;51.674;7.868;2024-03-02T13:02:49;21.02;;;19.52;;
9924;SDS011;5001;51.674;7.868;2024-03-02T13:05:18;21.10;;;19.60;;
9924;SDS011;5001;51.674;7.868;2024-03-02T13:07:47;21.08;;;19.58;;
9924;SDS011;5001;51.674;7.868;2024-03-02T13:10:15;21.63;;;19.92;;
9924;SDS011;5001;51.674;7.868;2024-03-02T13:12:44;20.50;;;19.00;;
9924;SDS011;5001;51.674;7.868;2024-03-02T13:15:11;20.50;;;19.00;;
9924;SDS011;5001;51.674;7.868;2024-03-02T13:17:44;21.48;;;19.98;;
9924;SDS011;5001;51.674;7.868;2024-03-02T13:20:14;22.48;;;20.67;;
9924;SDS011;5001;51.674;7.868;2024-03-02T13:22:43;21.15;;;19.55;;
9924;SDS011;5001;51.674;7.868;2024-03-02T13:25:10;21.52;;;19.83;;
9924;SDS011;5001;51.674;7.868;2024-03-02T13:27:38;21.30;;;19.70;;
9924;SDS011;5001;51.674;7.868;2024-03-02T13:30:06;20.75;;;19.25;;
9924;SDS011;5001;51.674;7.868;2024-03-02T13:32:35;21.00;;;19.50;;
9924;SDS011;5001;51.674;7.868;2024-03-02T13:35:03;20.88;;;19.27;;
9924;SDS011;5001;51.674;7.868;2024-03-02T13:37:30;21.33;;;19.67;;
9924;SDS011;5001;51.674;7.868;2024-03-02T13:39:57;21.30;;;19.70;;
9924;SDS011;5001;51.674;7.868;2024-03-02T13:42:24;21.40;;;19.77;;
9924;SDS011;5001;51.674;7.868;2024-03-02T13:44:51;21.20;;;19.55;;
9924;SDS011;5001;51.674;7.868;2024-03-02T13:47:19;20.48;;;18.77;;
9924;SDS011;5001;51.674;7.868;2024-03-02T13:49:47;20.30;;;18.60;;
9924;SDS011;5001;51.674;7.868;2024-03-02T13:52:15;20.15;;;18.33;;
9924;SDS011;5001;51.674;7.868;2024-03-02T13:54:47;19.70;;;18.10;;
9924;SDS011;5001;51.674;7.868;2024-03-02T13:57:14;19.83;;;18.23;;
9924;SDS011;5001;51.674;7.868;2024-03-02T13:59:43;20.58;;;18.98;;
9924;SDS011;5001;51.674;7.868;2024-03-02T14:02:11;20.40;;;18.90;;
9924;SDS011;5001;51.674;7.868;2024-03-02T14:04:39;20.98;;;19.38;;
9924;SDS011;5001;51.674;7.868;2024-03-02T14:07:06;20.60;;;19.10;;
9924;SDS011;5001;51.674;7.868;2024-03-02T14:09:34;20.33;;;18.80;;
9924;SDS011;5001;51.674;7.868;2024-03-02T14:12:02;20.80;;;19.27;;
9924;SDS011;5001;51.674;7.868;2024-03-02T14:14:29;20.10;;;18.60;;
9924;SDS011;5001;51.674;7.868;2024-03-02T14:16:56;19.73;;;18.33;;
9924;SDS011;5001;51.674;7.868;2024-03-02T14:19:27;20.17;;;18.67;;
9924;SDS011;5001;51.674;7.868;2024-03-02T14:21:54;20.08;;;18.48;;
9924;SDS011;5001;51.674;7.868;2024-03-02T14:24:21;20.25;;;18.65;;
9924;SDS011;5001;51.674;7.868;2024-03-02T14:26:52;19.92;;;18.42;;
9924;SDS011;5001;51.674;7.868;2024-03-02T14:29:28;19.80;;;18.20;;
9924;SDS011;5001;51.674;7.868;2024-03-02T14:31:55;20.88;;;19.27;;
9924;SDS011;5001;51.674;7.868;2024-03-02T14:34:22;20.10;;;18.50;;
9924;SDS011;5001;51.674;7.868;2024-03-02T14:36:49;20.00;;;18.40;;
9924;SDS011;5001;51.674;7.868;2024-03-02T14:39:16;20.10;;;18.33;;
9924;SDS011;5001;51.674;7.868;2024-03-02T14:41:45;19.40;;;18.00;;
9924;SDS011;5001;51.674;7.868;2024-03-02T14:44:12;19.77;;;18.25;;
9924;SDS011;5001;51.674;7.868;2024-03-02T14:46:39;19.60;;;18.20;;
9924;SDS011;5001;51.674;7.868;2024-03-02T14:49:09;20.08;;;18.48;;
9924;SDS011;5001;51.674;7.868;2024-03-02T14:51:37;20.70;;;19.10;;
9924;SDS011;5001;51.674;7.868;2024-03-02T14:54:04;20.00;;;18.52;;
9924;SDS011;5001;51.674;7.868;2024-03-02T14:56:31;20.10;;;18.48;;
9924;SDS011;5001;51.674;7.868;2024-03-02T14:58:58;19.80;;;18.30;;
9924;SDS011;5001;51.674;7.868;2024-03-02T15:01:25;19.98;;;18.50;;
9924;SDS011;5001;51.674;7.868;2024-03-02T15:03:52;19.83;;;18.33;;